Time;durP1;ratioP1;P1;durP2;ratioP2;P2;SDS_P1;SDS_P2;PMS_P1;PMS_P2;Temp;Humidity;BMP_temperature;BMP_pressure;BME280_temperature;BME280_humidity;BME280_pressure;Samples;Min_cycle;Max_cycle;Signal;HPM_P1;HPM_P2
2022/06/22 00:02:37;;;;;;;2.17;2.07;;;22.30;46.70;;;;;;5025204;28;20476;-59
2022/06/22 00:05:06;;;;;;;2.10;2.00;;;22.30;46.70;;;;;;5017369;28;20447;-59
2022/06/22 00:07:38;;;;;;;1.80;1.70;;;22.40;46.80;;;;;;5023393;28;20938;-59
2022/06/22 00:10:15;;;;;;;2.10;2.00;;;22.40;46.80;;;;;;5017410;28;20417;-60
2022/06/22 00:12:41;;;;;;;2.40;2.30;;;22.40;47.50;;;;;;5026197;28;20806;-59
2022/06/22 00:15:26;;;;;;;1.90;1.80;;;22.40;46.80;;;;;;5027411;28;20423;-59
2022/06/22 00:17:52;;;;;;;2.27;2.10;;;22.40;46.70;;;;;;5023248;28;20436;-59
2022/06/22 00:20:25;;;;;;;2.00;1.90;;;22.40;46.70;;;;;;5022322;28;20420;-59
2022/06/22 00:23:25;;;;;;;2.03;1.93;;;22.40;46.70;;;;;;5023550;28;20222;-59
2022/06/22 00:25:51;;;;;;;1.90;1.80;;;22.30;46.70;;;;;;5006109;28;20445;-59
2022/06/22 00:28:36;;;;;;;2.10;2.00;;;22.40;46.70;;;;;;5025507;28;21002;-59
2022/06/22 00:31:16;;;;;;;2.20;2.10;;;22.40;46.70;;;;;;5020817;28;20183;-59
2022/06/22 00:34:01;;;;;;;2.00;1.90;;;22.40;46.70;;;;;;5015927;28;20441;-60
2022/06/22 00:36:32;;;;;;;1.90;1.80;;;22.40;46.70;;;;;;5022157;28;20419;-60
2022/06/22 00:39:15;;;;;;;2.10;2.00;;;22.40;46.70;;;;;;5018448;28;20433;-60
2022/06/22 00:41:55;;;;;;;1.93;1.83;;;22.30;46.70;;;;;;5021177;28;20416;-59
2022/06/22 00:44:25;;;;;;;1.93;1.83;;;22.40;46.80;;;;;;5021097;28;21054;-59
2022/06/22 00:47:04;;;;;;;1.80;1.70;;;22.30;46.70;;;;;;5018351;28;20425;-59
2022/06/22 00:49:31;;;;;;;1.90;1.73;;;22.30;46.70;;;;;;5022000;28;20950;-59
2022/06/22 00:52:05;;;;;;;2.00;1.90;;;22.30;46.70;;;;;;5019039;28;20509;-60
2022/06/22 00:54:33;;;;;;;1.80;1.70;;;22.30;47.50;;;;;;5016803;28;20439;-60
2022/06/22 00:57:09;;;;;;;1.97;1.87;;;22.40;46.70;;;;;;5021988;28;20448;-59
2022/06/22 00:59:44;;;;;;;2.10;2.00;;;22.30;46.70;;;;;;5019760;28;20924;-59
2022/06/22 01:02:37;;;;;;;2.10;2.00;;;22.30;46.70;;;;;;5023937;28;20446;-59
2022/06/22 01:05:36;;;;;;;2.00;1.90;;;22.40;46.70;;;;;;5022435;28;20437;-59
2022/06/22 01:08:10;;;;;;;1.70;1.60;;;22.30;46.70;;;;;;5021244;28;20430;-59
2022/06/22 01:10:50;;;;;;;2.00;1.90;;;22.30;46.70;;;;;;5021744;28;20828;-58
2022/06/22 01:13:19;;;;;;;1.90;1.80;;;22.30;46.70;;;;;;5019322;28;20490;-59
2022/06/22 01:16:03;;;;;;;2.00;1.90;;;22.30;46.70;;;;;;5027143;28;20448;-59
2022/06/22 01:18:59;;;;;;;1.87;1.77;;;22.30;46.70;;;;;;5021852;28;20414;-59
2022/06/22 01:21:37;;;;;;;2.30;2.10;;;22.30;46.70;;;;;;5005315;28;20503;-59
2022/06/22 01:24:31;;;;;;;1.87;1.77;;;22.30;46.70;;;;;;5019162;28;20933;-59
2022/06/22 01:27:21;;;;;;;1.70;1.60;;;22.30;46.70;;;;;;5017332;28;20481;-60
2022/06/22 01:29:51;;;;;;;1.77;1.67;;;22.30;46.70;;;;;;5022898;28;20512;-59
2022/06/22 01:32:25;;;;;;;1.93;1.83;;;22.30;47.50;;;;;;5020158;28;20421;-59
2022/06/22 01:34:55;;;;;;;1.80;1.70;;;22.30;46.70;;;;;;5028557;28;20428;-59
2022/06/22 01:37:25;;;;;;;1.80;1.70;;;22.30;46.70;;;;;;5026429;28;20427;-59
2022/06/22 01:39:51;;;;;;;1.80;1.70;;;22.30;46.70;;;;;;5012276;28;21107;-59
2022/06/22 01:42:22;;;;;;;1.90;1.80;;;22.30;46.70;;;;;;5028184;28;20438;-59
2022/06/22 01:45:00;;;;;;;1.80;1.70;;;22.30;46.70;;;;;;5025277;28;20220;-59
2022/06/22 01:47:49;;;;;;;1.97;1.87;;;22.30;47.50;;;;;;5007299;28;21281;-59
2022/06/22 01:50:59;;;;;;;1.80;1.70;;;22.30;46.70;;;;;;5024822;28;20559;-59
2022/06/22 01:53:30;;;;;;;1.80;1.70;;;22.30;46.70;;;;;;5021579;28;20452;-59
2022/06/22 01:56:07;;;;;;;1.77;1.67;;;22.30;46.70;;;;;;5026553;28;20464;-59
2022/06/22 01:59:09;;;;;;;2.00;1.90;;;22.30;47.50;;;;;;5022491;28;20544;-60
2022/06/22 02:02:06;;;;;;;23.17;3.90;;;22.30;46.70;;;;;;5026100;28;20441;-60
2022/06/22 02:04:54;;;;;;;1.90;1.80;;;22.30;46.70;;;;;;5025158;28;20468;-60
2022/06/22 02:07:45;;;;;;;1.60;1.50;;;22.30;46.70;;;;;;5022227;28;20420;-60
2022/06/22 02:10:42;;;;;;;1.97;1.77;;;22.30;46.70;;;;;;5025004;28;20421;-59
2022/06/22 02:13:32;;;;;;;2.00;1.90;;;22.30;46.70;;;;;;5019921;28;20433;-59
2022/06/22 02:16:31;;;;;;;1.90;1.80;;;22.30;46.70;;;;;;5025538;28;20819;-60
2022/06/22 02:18:57;;;;;;;1.97;1.87;;;22.30;46.70;;;;;;5021279;28;20595;-59
2022/06/22 02:21:42;;;;;;;1.70;1.60;;;22.30;46.70;;;;;;5019864;28;20882;-59
2022/06/22 02:24:31;;;;;;;2.00;1.90;;;22.30;46.70;;;;;;5021399;28;20230;-59
2022/06/22 02:27:09;;;;;;;1.83;1.57;;;22.30;46.70;;;;;;5021368;28;20473;-60
2022/06/22 02:29:53;;;;;;;1.80;1.70;;;22.30;46.70;;;;;;5021051;28;20437;-59
2022/06/22 02:32:31;;;;;;;1.90;1.80;;;22.30;46.70;;;;;;5020336;28;20430;-61
2022/06/22 02:34:57;;;;;;;1.80;1.70;;;22.30;46.70;;;;;;5022075;28;20428;-61
2022/06/22 02:37:29;;;;;;;1.90;1.80;;;22.30;46.70;;;;;;5021846;28;20491;-60
2022/06/22 02:39:58;;;;;;;1.90;1.80;;;22.30;46.70;;;;;;5021875;28;20420;-60
2022/06/22 02:45:10;;;;;;;1.80;1.70;;;22.30;46.70;;;;;;5017999;28;20440;-60
2022/06/22 02:47:58;;;;;;;1.80;1.70;;;22.30;46.70;;;;;;5018950;28;20443;-60
2022/06/22 02:50:41;;;;;;;2.07;1.97;;;22.30;46.70;;;;;;5018617;28;20778;-59
2022/06/22 02:53:13;;;;;;;1.50;1.40;;;22.30;46.70;;;;;;5019843;28;20474;-59
2022/06/22 02:55:38;;;;;;;2.03;1.93;;;22.30;46.70;;;;;;5022535;28;20414;-59
2022/06/22 02:58:25;;;;;;;1.87;1.77;;;22.30;46.70;;;;;;5025963;28;20893;-59
2022/06/22 03:00:52;;;;;;;2.50;2.40;;;22.30;46.70;;;;;;5027997;28;20179;-59
2022/06/22 03:03:18;;;;;;;2.20;2.10;;;22.30;46.70;;;;;;5024603;28;20495;-60
2022/06/22 03:05:46;;;;;;;2.07;1.97;;;22.30;46.70;;;;;;5024884;28;20451;-60
2022/06/22 03:08:14;;;;;;;1.80;1.70;;;22.30;46.70;;;;;;5026424;28;20183;-60
2022/06/22 03:10:57;;;;;;;1.83;1.73;;;22.30;46.70;;;;;;5024881;28;20429;-59
2022/06/22 03:13:39;;;;;;;1.90;1.80;;;22.30;46.70;;;;;;5021267;28;20456;-60
2022/06/22 03:16:07;;;;;;;1.80;1.70;;;22.30;46.70;;;;;;5024089;28;20428;-60
2022/06/22 03:18:37;;;;;;;1.90;1.80;;;22.30;46.70;;;;;;5022376;28;20448;-60
2022/06/22 03:21:06;;;;;;;1.70;1.60;;;22.30;46.70;;;;;;5025252;28;20428;-59
2022/06/22 03:23:40;;;;;;;2.07;1.97;;;22.30;46.70;;;;;;5022969;28;20460;-60
2022/06/22 03:26:19;;;;;;;1.60;1.50;;;22.30;46.70;;;;;;5021912;28;20421;-60
2022/06/22 03:28:54;;;;;;;1.70;1.60;;;22.30;46.70;;;;;;5023931;28;20463;-60
2022/06/22 03:31:42;;;;;;;1.90;1.80;;;22.30;46.70;;;;;;5024045;28;20908;-60
2022/06/22 03:34:19;;;;;;;1.80;1.70;;;22.30;46.70;;;;;;5017661;28;20935;-60
2022/06/22 03:36:47;;;;;;;2.90;1.87;;;22.30;46.70;;;;;;5021912;28;20428;-59
2022/06/22 03:39:17;;;;;;;1.77;1.67;;;22.30;47.50;;;;;;5020685;28;20921;-59
2022/06/22 03:41:49;;;;;;;1.70;1.60;;;22.30;46.70;;;;;;5018265;28;20422;-59
2022/06/22 03:44:21;;;;;;;1.67;1.57;;;22.30;46.70;;;;;;5021106;28;20472;-61
2022/06/22 03:46:55;;;;;;;1.80;1.70;;;22.30;46.70;;;;;;5017417;28;20479;-60
2022/06/22 03:49:42;;;;;;;1.70;1.60;;;22.30;46.70;;;;;;5020023;28;20963;-60
2022/06/22 03:52:14;;;;;;;1.80;1.70;;;22.30;46.70;;;;;;5020241;28;20428;-59
2022/06/22 03:54:51;;;;;;;2.00;1.90;;;22.30;46.70;;;;;;5018452;28;20515;-60
2022/06/22 03:57:21;;;;;;;1.80;1.70;;;22.30;46.70;;;;;;5018710;28;20841;-60
2022/06/22 03:59:47;;;;;;;1.77;1.67;;;22.30;46.70;;;;;;5019839;28;20425;-60
2022/06/22 04:02:14;;;;;;;1.97;1.87;;;22.30;46.70;;;;;;5022360;28;20487;-59
2022/06/22 04:04:40;;;;;;;1.53;1.43;;;22.30;46.70;;;;;;5016403;28;20924;-60
2022/06/22 04:07:06;;;;;;;1.70;1.60;;;22.30;46.70;;;;;;5019671;28;20516;-59
2022/06/22 04:09:32;;;;;;;1.80;1.70;;;22.30;46.70;;;;;;5023466;28;20184;-60
2022/06/22 04:12:09;;;;;;;1.80;1.70;;;22.30;46.70;;;;;;5016636;28;20260;-59
2022/06/22 04:14:47;;;;;;;1.70;1.60;;;22.30;46.70;;;;;;5017191;28;20431;-60
2022/06/22 04:17:36;;;;;;;2.03;1.93;;;22.30;46.70;;;;;;5015767;28;20422;-60
2022/06/22 04:20:16;;;;;;;1.73;1.63;;;22.30;46.70;;;;;;5020416;28;20420;-63
2022/06/22 04:22:45;;;;;;;1.90;1.80;;;22.30;46.70;;;;;;5022144;28;20947;-63
2022/06/22 04:25:33;;;;;;;1.80;1.70;;;22.30;46.70;;;;;;5022138;28;20491;-63
2022/06/22 04:28:03;;;;;;;1.60;1.50;;;22.30;46.70;;;;;;5018796;28;20844;-61
2022/06/22 04:30:32;;;;;;;1.90;1.80;;;22.30;46.70;;;;;;5025973;28;20439;-60
2022/06/22 04:33:11;;;;;;;2.13;2.03;;;22.40;46.70;;;;;;5026082;28;20920;-60
2022/06/22 04:35:58;;;;;;;1.80;1.70;;;22.40;46.80;;;;;;5025484;28;20447;-60
2022/06/22 04:38:39;;;;;;;1.90;1.80;;;22.40;46.80;;;;;;5025617;28;20428;-59
2022/06/22 04:41:32;;;;;;;2.10;2.00;;;22.40;46.70;;;;;;5024318;28;20421;-64
2022/06/22 04:44:22;;;;;;;2.03;1.93;;;22.50;46.80;;;;;;5026133;28;20538;-61
2022/06/22 04:46:51;;;;;;;2.00;1.90;;;22.50;47.60;;;;;;5026374;28;20546;-62
2022/06/22 04:49:22;;;;;;;2.40;1.90;;;22.40;46.80;;;;;;5026404;28;20482;-61
2022/06/22 04:51:53;;;;;;;2.00;1.90;;;22.50;46.90;;;;;;5024796;28;20488;-60
2022/06/22 04:54:32;;;;;;;1.93;1.73;;;22.50;46.90;;;;;;5019987;28;20433;-61
2022/06/22 04:57:04;;;;;;;1.83;1.73;;;22.50;46.80;;;;;;5024358;28;20436;-61
2022/06/22 04:59:31;;;;;;;1.70;1.60;;;22.50;46.90;;;;;;5023772;28;20957;-61
2022/06/22 05:02:01;;;;;;;1.70;1.60;;;22.50;46.80;;;;;;5023147;28;20821;-61
2022/06/22 05:04:37;;;;;;;2.10;2.00;;;22.50;46.80;;;;;;5023551;28;20465;-60
2022/06/22 05:07:15;;;;;;;2.07;1.97;;;22.50;46.90;;;;;;5025591;28;20532;-62
2022/06/22 06:00:02;;;;;;;2.13;2.03;;;22.40;46.80;;;;;;4973878;28;20514;-55
2022/06/22 06:02:42;;;;;;;2.63;2.33;;;22.40;46.80;;;;;;4973212;28;20554;-54
2022/06/22 06:05:25;;;;;;;2.20;2.10;;;22.40;46.80;;;;;;4974525;28;20464;-62
2022/06/22 06:07:57;;;;;;;1.90;1.80;;;22.40;46.80;;;;;;4977439;28;20449;-54
2022/06/22 06:10:25;;;;;;;2.40;2.30;;;22.40;46.60;;;;;;4970547;28;20524;-53
2022/06/22 06:13:00;;;;;;;2.63;2.43;;;22.40;46.60;;;;;;4970206;28;20447;-54
2022/06/22 06:15:27;;;;;;;2.23;2.07;;;22.40;46.50;;;;;;4970111;28;20549;-55
2022/06/22 06:17:57;;;;;;;2.40;2.30;;;22.40;46.40;;;;;;4971899;28;20646;-58
2022/06/22 06:20:39;;;;;;;2.20;2.10;;;22.40;46.30;;;;;;4969775;28;20443;-54
2022/06/22 06:23:12;;;;;;;1.90;1.80;;;22.40;46.30;;;;;;4968766;28;20438;-57
2022/06/22 06:28:48;;;;;;;2.30;2.20;;;22.40;46.30;;;;;;4967954;28;20497;-53
2022/06/22 06:31:33;;;;;;;2.17;2.07;;;22.40;46.20;;;;;;4967148;28;21141;-57
2022/06/22 06:34:00;;;;;;;2.10;2.00;;;22.40;46.20;;;;;;4970567;28;20426;-52
2022/06/22 06:36:31;;;;;;;4.33;1.90;;;22.40;46.20;;;;;;4970439;28;21103;-56
2022/06/22 06:39:14;;;;;;;2.10;2.00;;;22.30;46.00;;;;;;4910875;28;20946;-58
2022/06/22 06:44:22;;;;;;;2.13;2.03;;;22.30;45.90;;;;;;4922836;28;20535;-57
2022/06/22 06:49:28;;;;;;;2.70;2.50;;;22.40;46.00;;;;;;4998003;28;20760;-61
2022/06/22 06:52:10;;;;;;;2.10;2.00;;;22.40;46.00;;;;;;5000131;28;20438;-56
2022/06/22 06:54:42;;;;;;;2.00;1.90;;;22.40;45.90;;;;;;4998803;28;20571;-58
2022/06/22 06:57:17;;;;;;;2.23;2.13;;;22.40;46.70;;;;;;5002006;28;20434;-57
2022/06/22 06:59:46;;;;;;;2.00;1.90;;;22.40;46.00;;;;;;5003209;28;20434;-57
2022/06/22 07:02:17;;;;;;;2.30;2.20;;;22.40;45.90;;;;;;5003857;28;20433;-57
2022/06/22 07:04:44;;;;;;;1.83;1.70;;;22.40;45.90;;;;;;4999264;28;20540;-56
2022/06/22 07:07:37;;;;;;;2.17;2.07;;;22.40;45.90;;;;;;5004650;28;20454;-62
2022/06/22 07:10:12;;;;;;;1.80;1.70;;;22.30;45.80;;;;;;5001566;28;20429;-57
2022/06/22 07:13:01;;;;;;;2.20;2.10;;;22.40;45.90;;;;;;5004199;28;20452;-58
2022/06/22 07:15:39;;;;;;;1.80;1.70;;;22.30;45.80;;;;;;5003101;28;20437;-63
2022/06/22 07:18:30;;;;;;;2.20;2.10;;;22.40;45.90;;;;;;4999192;28;20474;-60
2022/06/22 07:21:16;;;;;;;1.93;1.83;;;22.30;45.80;;;;;;5000763;28;20434;-57
2022/06/22 07:23:47;;;;;;;2.20;2.10;;;22.40;45.90;;;;;;5001553;28;20475;-63
2022/06/22 07:26:36;;;;;;;2.30;2.20;;;22.40;45.90;;;;;;5002757;28;20450;-58
2022/06/22 07:29:28;;;;;;;2.20;2.10;;;22.30;45.80;;;;;;5005902;28;20784;-61
2022/06/22 07:32:10;;;;;;;2.03;1.93;;;22.40;45.90;;;;;;5002250;28;20461;-57
2022/06/22 07:34:52;;;;;;;2.40;2.30;;;22.40;45.90;;;;;;5001360;28;20442;-58
2022/06/22 07:37:22;;;;;;;2.20;2.10;;;22.40;45.90;;;;;;5002796;28;20499;-57
2022/06/22 07:40:01;;;;;;;2.07;1.97;;;22.30;45.80;;;;;;5004411;28;20429;-60
2022/06/22 07:42:27;;;;;;;2.20;2.10;;;22.40;45.90;;;;;;5005004;28;20555;-59
2022/06/22 07:44:53;;;;;;;2.30;2.20;;;22.30;45.90;;;;;;5002150;28;20478;-57
2022/06/22 07:47:28;;;;;;;2.67;2.47;;;22.40;45.90;;;;;;5005883;28;20654;-57
2022/06/22 07:50:14;;;;;;;2.13;2.03;;;22.40;45.90;;;;;;5000117;28;20924;-57
2022/06/22 07:52:51;;;;;;;2.37;2.27;;;22.30;45.80;;;;;;5001890;28;20430;-58
2022/06/22 07:55:38;;;;;;;2.50;2.40;;;22.30;45.80;;;;;;4999858;28;20436;-60
2022/06/22 07:58:25;;;;;;;2.47;2.33;;;22.40;46.00;;;;;;5001223;28;20437;-57
2022/06/22 08:00:56;;;;;;;2.13;2.03;;;22.30;45.90;;;;;;5002105;28;20524;-57
2022/06/22 08:03:49;;;;;;;2.43;2.33;;;22.30;45.80;;;;;;5002346;28;20477;-56
2022/06/22 08:06:28;;;;;;;2.40;2.30;;;22.30;45.80;;;;;;5006596;28;20420;-63
2022/06/22 08:09:05;;;;;;;2.30;2.20;;;22.30;45.90;;;;;;5004283;28;20591;-57
2022/06/22 08:11:38;;;;;;;2.53;2.33;;;22.40;46.00;;;;;;5006111;28;20491;-58
2022/06/22 08:14:19;;;;;;;2.63;2.53;;;22.30;45.90;;;;;;5003630;28;20828;-56
2022/06/22 08:16:58;;;;;;;2.10;2.00;;;22.30;45.90;;;;;;5007870;28;20512;-61
2022/06/22 08:19:27;;;;;;;2.60;2.40;;;22.30;45.90;;;;;;5003755;28;20433;-56
2022/06/22 08:21:55;;;;;;;2.20;2.10;;;22.30;46.00;;;;;;5003960;28;20469;-57
2022/06/22 08:24:21;;;;;;;2.73;2.53;;;22.30;45.90;;;;;;5004106;28;20476;-56
2022/06/22 08:26:50;;;;;;;2.33;2.23;;;22.30;45.90;;;;;;4991093;28;20449;-67
2022/06/22 08:29:18;;;;;;;2.50;2.40;;;22.30;45.90;;;;;;5004100;28;20195;-60
2022/06/22 08:31:51;;;;;;;2.70;2.50;;;22.30;45.90;;;;;;4990572;28;20449;-56
2022/06/22 08:34:26;;;;;;;2.33;2.23;;;22.30;45.90;;;;;;5001668;28;20438;-57
2022/06/22 08:36:57;;;;;;;2.80;2.70;;;22.30;45.90;;;;;;5006842;28;20544;-56
2022/06/22 08:39:35;;;;;;;2.80;2.60;;;22.30;45.90;;;;;;5006783;28;20429;-60
2022/06/22 08:42:25;;;;;;;2.30;2.20;;;22.30;45.90;;;;;;5004881;28;20556;-61
2022/06/22 08:45:12;;;;;;;2.57;2.40;;;22.30;45.80;;;;;;5001966;28;20468;-57
2022/06/22 08:48:05;;;;;;;2.67;2.57;;;22.30;45.90;;;;;;5005517;28;20560;-56
2022/06/22 08:53:34;;;;;;;3.87;2.70;;;22.30;45.90;;;;;;6003024;23;20393;-65
2022/06/22 08:56:19;;;;;;;3.50;3.30;;;22.30;46.00;;;;;;4984435;28;20434;-64
2022/06/22 08:59:19;;;;;;;2.80;2.70;;;22.30;46.00;;;;;;4988157;28;20442;-62
2022/06/22 09:01:58;;;;;;;3.27;3.07;;;22.30;45.90;;;;;;4984219;28;20455;-62
2022/06/22 09:04:45;;;;;;;3.00;2.80;;;22.30;45.90;;;;;;4986720;28;20985;-62
2022/06/22 09:07:43;;;;;;;2.90;2.80;;;22.30;45.90;;;;;;4990177;28;20433;-62
2022/06/22 09:10:39;;;;;;;3.10;2.93;;;22.30;45.90;;;;;;4984860;28;20451;-61
2022/06/22 09:13:05;;;;;;;3.13;2.97;;;22.30;46.00;;;;;;4984229;28;20442;-62
2022/06/22 09:15:41;;;;;;;2.90;2.80;;;22.30;46.00;;;;;;4988818;28;20529;-62
2022/06/22 09:18:40;;;;;;;3.10;2.90;;;22.30;46.00;;;;;;4990552;28;20609;-62
2022/06/22 09:21:24;;;;;;;3.23;3.03;;;22.30;46.00;;;;;;4989035;28;20570;-69
2022/06/22 09:24:00;;;;;;;3.20;3.00;;;22.30;46.00;;;;;;4987082;28;20956;-61
2022/06/22 09:26:40;;;;;;;3.10;2.93;;;22.30;46.00;;;;;;4986635;28;20464;-63
2022/06/22 09:29:12;;;;;;;2.90;2.80;;;22.30;46.00;;;;;;4987041;28;20438;-65
2022/06/22 09:31:55;;;;;;;3.10;3.00;;;22.30;46.10;;;;;;4982238;28;20477;-63
2022/06/22 09:34:43;;;;;;;3.20;3.00;;;22.30;46.00;;;;;;4984395;28;20502;-64
2022/06/22 09:37:37;;;;;;;3.10;2.90;;;22.30;46.10;;;;;;4981938;28;20449;-62
2022/06/22 09:40:28;;;;;;;3.60;3.40;;;22.30;46.00;;;;;;4985196;28;20808;-63
2022/06/22 09:42:54;;;;;;;3.60;3.40;;;22.30;46.00;;;;;;4986439;28;20435;-62
2022/06/22 09:46:07;;;;;;;3.30;3.20;;;22.30;46.10;;;;;;4981153;28;20554;-63
2022/06/22 09:48:41;;;;;;;3.30;3.10;;;22.30;46.10;;;;;;4979132;28;20219;-62
2022/06/22 09:51:17;;;;;;;3.20;3.10;;;22.30;46.10;;;;;;4984706;28;20508;-62
2022/06/22 09:56:19;;;;;;;3.90;3.70;;;22.30;46.10;;;;;;4984803;28;20492;-63
2022/06/22 09:57:24;;;;;;;3.13;3.03;;;22.30;46.10;;;;;;4983491;28;20843;-62
2022/06/22 10:00:08;;;;;;;3.50;3.30;;;22.30;46.10;;;;;;4983991;28;20413;-68
2022/06/22 10:03:10;;;;;;;3.80;3.60;;;22.30;46.10;;;;;;4985179;28;20444;-63
2022/06/22 10:06:00;;;;;;;3.57;3.40;;;22.30;46.10;;;;;;4985689;28;20949;-62
2022/06/22 10:09:03;;;;;;;3.30;3.10;;;22.30;46.10;;;;;;4984639;28;20470;-62
2022/06/22 10:11:56;;;;;;;4.50;4.20;;;22.30;46.10;;;;;;4985513;28;20668;-64
2022/06/22 10:14:55;;;;;;;3.90;3.70;;;22.30;46.20;;;;;;4971175;28;20458;-62
2022/06/22 10:17:58;;;;;;;3.97;3.77;;;22.30;46.20;;;;;;4982577;28;20443;-64
2022/06/22 10:20:41;;;;;;;5.30;3.63;;;22.30;46.10;;;;;;4986515;28;20437;-62
2022/06/22 10:23:19;;;;;;;4.00;3.80;;;22.30;46.20;;;;;;4983082;28;20442;-63
2022/06/22 10:25:59;;;;;;;4.50;4.30;;;22.30;46.20;;;;;;4985604;28;21138;-63
2022/06/22 10:28:39;;;;;;;3.90;3.70;;;22.30;46.30;;;;;;4983988;28;20823;-65
2022/06/22 10:31:16;;;;;;;4.10;3.80;;;22.30;46.30;;;;;;4982832;28;20459;-63
2022/06/22 10:33:59;;;;;;;4.70;4.50;;;22.30;46.20;;;;;;4986034;28;20449;-62
2022/06/22 10:36:51;;;;;;;4.47;4.27;;;22.30;46.20;;;;;;4985905;28;20434;-66
2022/06/22 10:39:33;;;;;;;4.33;4.13;;;22.30;46.20;;;;;;4986342;28;20435;-62
2022/06/22 10:45:09;;;;;;;4.07;3.87;;;22.30;46.20;;;;;;4987650;28;20478;-62
2022/06/22 10:47:50;;;;;;;4.30;4.10;;;22.30;46.20;;;;;;4984028;28;20589;-64
2022/06/22 10:50:32;;;;;;;4.40;4.20;;;22.30;46.20;;;;;;4989542;28;20431;-62
2022/06/22 10:53:22;;;;;;;4.13;3.93;;;22.30;46.20;;;;;;4981830;28;20497;-62
2022/06/22 10:56:14;;;;;;;4.70;4.50;;;22.30;46.30;;;;;;4987798;28;20521;-62
2022/06/22 10:59:04;;;;;;;5.00;4.70;;;22.30;46.30;;;;;;4986323;28;20493;-64
2022/06/22 11:01:48;;;;;;;4.83;4.63;;;22.30;46.30;;;;;;4989676;28;20438;-62
2022/06/22 11:04:44;;;;;;;4.73;4.53;;;22.30;46.30;;;;;;4988948;28;20926;-62
2022/06/22 11:07:31;;;;;;;4.80;4.40;;;22.30;46.30;;;;;;4987158;28;20458;-63
2022/06/22 11:10:15;;;;;;;4.80;4.50;;;22.30;46.40;;;;;;4988039;28;20422;-66
2022/06/22 11:13:11;;;;;;;5.03;4.83;;;22.20;46.30;;;;;;4987852;28;20434;-62
2022/06/22 11:15:55;;;;;;;4.93;4.73;;;22.30;46.40;;;;;;4988330;28;20540;-62
2022/06/22 11:18:45;;;;;;;4.97;4.67;;;22.30;46.50;;;;;;4984624;28;20965;-62
2022/06/22 11:21:52;;;;;;;5.63;5.23;;;22.30;46.40;;;;;;4985707;28;20442;-62
2022/06/22 11:24:50;;;;;;;4.93;4.63;;;22.30;46.40;;;;;;4981197;28;20482;-62
2022/06/22 11:30:59;;;;;;;4.80;4.60;;;22.20;46.40;;;;;;4984077;28;20568;-62
2022/06/22 11:33:40;;;;;;;5.20;4.90;;;22.30;46.40;;;;;;4984501;28;20497;-63
2022/06/22 11:36:21;;;;;;;5.50;5.20;;;22.30;46.60;;;;;;4982375;28;20470;-65
2022/06/22 11:39:05;;;;;;;5.30;5.00;;;22.30;46.60;;;;;;4981825;28;20435;-67
2022/06/22 11:42:04;;;;;;;4.77;4.57;;;22.30;46.50;;;;;;4979547;28;21002;-63
2022/06/22 11:47:48;;;;;;;5.60;5.30;;;22.30;46.50;;;;;;4980491;28;20442;-63
2022/06/22 11:50:51;;;;;;;5.80;5.50;;;22.30;46.60;;;;;;4982880;28;20794;-64
2022/06/22 11:53:44;;;;;;;5.43;5.13;;;22.30;46.60;;;;;;4980429;28;20557;-65
2022/06/22 11:56:41;;;;;;;4.90;4.70;;;22.30;46.60;;;;;;4979537;28;20439;-71
2022/06/22 11:59:29;;;;;;;5.93;5.63;;;22.30;46.60;;;;;;4981898;28;20448;-63
2022/06/22 12:02:21;;;;;;;5.40;5.13;;;22.30;46.60;;;;;;4980046;28;20498;-66
2022/06/22 12:05:01;;;;;;;5.83;5.50;;;22.20;46.60;;;;;;4981989;28;20473;-62
2022/06/22 12:07:43;;;;;;;6.20;5.73;;;22.20;46.50;;;;;;4980732;28;20434;-63
2022/06/22 12:10:43;;;;;;;5.30;5.00;;;22.30;46.70;;;;;;4981697;28;20434;-63
2022/06/22 12:13:11;;;;;;;5.47;5.17;;;22.20;46.60;;;;;;4981196;28;20484;-64
2022/06/22 12:16:27;;;;;;;5.37;4.97;;;22.30;46.70;;;;;;4977788;28;20443;-64
2022/06/22 12:19:34;;;;;;;5.60;5.30;;;22.30;46.60;;;;;;4911835;28;20466;-63
2022/06/22 12:24:49;;;;;;;5.67;5.37;;;22.30;46.70;;;;;;5011118;23;20484;-72
2022/06/22 12:27:28;;;;;;;5.33;5.10;;;22.30;46.70;;;;;;5000209;28;20452;-73
2022/06/22 12:30:23;;;;;;;5.67;5.37;;;22.30;46.70;;;;;;5001667;28;20430;-72
2022/06/22 12:33:22;;;;;;;6.07;5.57;;;22.30;46.70;;;;;;5000836;28;20438;-73
2022/06/22 12:35:58;;;;;;;5.30;5.00;;;22.30;46.70;;;;;;4984137;28;20780;-72
2022/06/22 12:38:24;;;;;;;6.00;5.70;;;22.30;46.70;;;;;;4999668;28;20964;-73
2022/06/22 12:40:57;;;;;;;5.70;5.30;;;22.30;46.70;;;;;;5002330;28;20483;-72
2022/06/22 12:46:37;;;;;;;5.33;5.03;;;22.30;46.70;;;;;;4272502;26;20502;-67
2022/06/22 12:49:24;;;;;;;5.50;5.20;;;22.30;46.70;;;;;;4986844;28;21035;-63
2022/06/22 12:52:01;;;;;;;5.87;5.57;;;22.30;46.70;;;;;;4984048;28;20488;-63
2022/06/22 12:54:34;;;;;;;6.13;5.83;;;22.30;46.70;;;;;;4986801;28;20509;-63
2022/06/22 12:57:04;;;;;;;6.43;6.13;;;22.30;46.70;;;;;;4993144;28;20505;-66
2022/06/22 12:59:43;;;;;;;5.60;5.30;;;22.30;46.70;;;;;;4991324;28;20414;-62
2022/06/22 13:02:24;;;;;;;6.10;5.70;;;22.30;46.70;;;;;;4987843;28;20430;-65
2022/06/22 13:05:13;;;;;;;6.00;5.60;;;22.30;46.70;;;;;;4991797;28;20458;-62
2022/06/22 13:07:46;;;;;;;5.00;4.70;;;22.30;46.70;;;;;;4987925;28;20453;-62
2022/06/22 13:10:17;;;;;;;5.63;5.33;;;22.30;46.70;;;;;;4988152;28;20431;-64
2022/06/22 13:13:02;;;;;;;6.03;5.73;;;22.30;46.70;;;;;;4987725;28;20433;-62
2022/06/22 13:15:32;;;;;;;5.33;5.03;;;22.30;46.80;;;;;;4989147;28;20521;-65
2022/06/22 13:18:05;;;;;;;5.80;5.50;;;22.30;46.70;;;;;;4992273;28;20438;-62
2022/06/22 13:21:05;;;;;;;5.67;5.37;;;22.30;46.70;;;;;;4992163;28;20528;-62
2022/06/22 13:23:58;;;;;;;5.40;5.10;;;22.30;46.70;;;;;;4991941;28;20557;-62
2022/06/22 13:26:47;;;;;;;5.90;5.60;;;22.30;46.70;;;;;;4990118;28;20447;-62
2022/06/22 13:29:29;;;;;;;6.60;6.20;;;22.30;46.70;;;;;;4991364;28;20813;-65
2022/06/22 13:31:58;;;;;;;5.37;5.07;;;22.30;46.70;;;;;;4992835;28;20457;-62
2022/06/22 13:34:55;;;;;;;5.30;5.00;;;22.30;46.70;;;;;;4990087;28;20439;-62
2022/06/22 13:37:42;;;;;;;6.33;5.93;;;22.30;46.70;;;;;;4990619;28;20464;-67
2022/06/22 13:40:14;;;;;;;5.97;5.67;;;22.30;46.70;;;;;;4992109;28;20528;-63
2022/06/22 13:43:03;;;;;;;4.93;4.63;;;22.20;46.60;;;;;;4990523;28;20515;-62
2022/06/22 13:45:57;;;;;;;5.57;5.17;;;22.20;46.60;;;;;;4982094;28;20466;-63
2022/06/22 13:48:43;;;;;;;5.87;5.57;;;22.30;46.70;;;;;;4992830;28;20536;-62
2022/06/22 13:51:34;;;;;;;5.83;5.43;;;22.30;46.70;;;;;;4994317;28;20424;-62
2022/06/22 13:54:18;;;;;;;5.57;5.27;;;22.20;46.60;;;;;;4992391;28;20417;-61
2022/06/22 13:57:01;;;;;;;5.30;5.00;;;22.30;46.70;;;;;;4991233;28;20978;-62
2022/06/22 13:59:38;;;;;;;5.60;5.30;;;22.30;46.70;;;;;;4990011;28;20454;-68
2022/06/22 14:02:25;;;;;;;5.90;5.60;;;22.30;46.70;;;;;;4991663;28;20914;-62
2022/06/22 14:04:56;;;;;;;5.93;5.63;;;22.30;46.70;;;;;;4986884;28;20470;-62
2022/06/22 14:07:51;;;;;;;5.50;5.20;;;22.30;46.70;;;;;;4988920;28;20424;-62
2022/06/22 14:10:48;;;;;;;5.13;4.93;;;22.30;46.70;;;;;;4990851;28;20902;-63
2022/06/22 14:13:32;;;;;;;5.47;5.20;;;22.30;46.70;;;;;;4966296;28;20560;-62
2022/06/22 14:16:05;;;;;;;5.30;5.07;;;22.30;46.70;;;;;;4988994;28;20920;-63
2022/06/22 14:18:53;;;;;;;6.00;5.60;;;22.30;46.70;;;;;;4988843;28;20431;-62
2022/06/22 14:21:42;;;;;;;5.53;5.23;;;22.20;46.60;;;;;;4988777;28;20434;-64
2022/06/22 14:24:19;;;;;;;6.50;5.80;;;22.20;46.60;;;;;;4985287;28;21102;-63
2022/06/22 14:27:14;;;;;;;5.57;5.20;;;22.20;46.60;;;;;;4983254;28;20442;-64
2022/06/22 14:29:59;;;;;;;5.40;5.10;;;22.30;46.70;;;;;;4988819;28;20576;-75
2022/06/22 14:32:27;;;;;;;5.60;5.30;;;22.30;46.70;;;;;;4988597;28;20473;-77
2022/06/22 14:35:19;;;;;;;5.30;5.00;;;22.30;46.70;;;;;;4990817;28;20466;-75
2022/06/22 14:37:48;;;;;;;5.60;5.30;;;22.30;46.70;;;;;;4980324;28;20871;-75
2022/06/22 14:40:33;;;;;;;6.00;5.60;;;22.30;46.70;;;;;;4959475;28;20541;-74
2022/06/22 14:43:16;;;;;;;6.57;6.07;;;22.30;46.70;;;;;;4988517;28;20438;-76
2022/06/22 14:45:44;;;;;;;5.93;5.53;;;22.30;46.70;;;;;;4988845;28;20765;-76
2022/06/22 14:48:12;;;;;;;5.33;5.03;;;22.20;46.60;;;;;;4992066;28;20928;-75
2022/06/22 14:50:48;;;;;;;5.77;5.37;;;22.30;46.70;;;;;;4969326;28;20438;-75
2022/06/22 14:53:35;;;;;;;5.80;5.50;;;22.30;46.70;;;;;;4988498;28;20525;-75
2022/06/22 14:56:12;;;;;;;5.77;5.47;;;22.30;46.70;;;;;;4986460;28;20492;-76
2022/06/22 14:58:46;;;;;;;5.40;5.10;;;22.20;46.60;;;;;;4981354;28;20785;-76
2022/06/22 15:01:32;;;;;;;5.13;4.80;;;22.30;46.70;;;;;;4987295;28;20545;-74
2022/06/22 15:04:30;;;;;;;5.57;5.27;;;22.30;46.70;;;;;;4985774;28;20537;-75
2022/06/22 15:07:17;;;;;;;5.67;5.37;;;22.20;46.60;;;;;;4987279;28;20443;-76
2022/06/22 15:09:53;;;;;;;4.97;4.67;;;22.30;46.70;;;;;;4989894;28;20446;-74
2022/06/22 15:15:49;;;;;;;5.13;4.83;;;22.30;46.70;;;;;;4991249;28;20794;-73
2022/06/22 15:18:31;;;;;;;5.70;5.40;;;22.30;46.70;;;;;;4989183;28;20452;-74
2022/06/22 15:21:02;;;;;;;5.30;5.00;;;22.20;46.60;;;;;;4989462;28;21144;-73